カラチ の空港の天気 - METARとTAF

ジンナー国際空港(カラチ) ( OPKC / KHI ) - パキスタン Karachi
飛行場実況気象(Metar)
観測時間09/25 08:25 PKT (09/25 03:25 UTC)
風向・風速西南西 5m/s
視程5000m
天気現象
全天の8割程度の雲 雲底高度 610m
気温28℃
湿度74%
気圧1010hPa
METAROPKC 250325Z 25010KT 5000 FU BKN020 28/23 Q1010 NOSIG
過去の天気等 Google飛行場航空写真 Wunderground天気予報

過去48時間のMETAR

飛行場予報(TAF)
発表時間: 9/25 03:00 PKT (9/24 22:00 UTC)
予報対象時間: 25日5時 PKT ~ 26日11時 PKT
風向・風速西南西 5m/s 瞬間風速 10m/s
視程6000m
少しの雲 雲底高度 610m
25日5時 PKT ~ 25日9時 PKT に一時的に
風向・風速西南西 4m/s
視程4000m
天気現象煙霧
全天の8割程度の雲 雲底高度 760m
26日3時 PKT から
風向・風速西南西 4m/s 瞬間風速 9m/s
視程4000m
天気現象煙霧
なし
TAF OPKC 242200Z 2500/2606 24010G20KT 6000 FEW020
TEMPO 2500/2504 25008KT 4000 HZ BKN025
FM 252200 25008G18KT 4000 HZ NSC